Bryan, Kentucky
Current Conditions -  °F | °C
As of 10:56 AM on Wednesday 26 Nov 2014 (Local Time) from KEKQ Reporting Station
Clear Clear  
Wind Chill: 42°   Ceiling: Unl
Heat Index: 45°   Visibility: 10mi
Dew Point: 29°   Wind: 6mph
Humidity: 54%   Direction: 280°W
Pressure: 30.12"   Gusts: NA
Location:  36.9448°N, 85.1275°W
Report Text: KEKQ 261656Z AUTO 28005KT 10SM CLR 07/M02 A3012 RMK AO2 T00721016 SLP207
Loading
Personal Weather Stations






























Interactive Weather Map New forecast layout! Learn more

10-Day Weather Forecast

Advertisements
Track Severe Weather on mobile